Time;durP1;ratioP1;P1;durP2;ratioP2;P2;SDS_P1;SDS_P2;PMS_P1;PMS_P2;Temp;Humidity;BMP_temperature;BMP_pressure;BME280_temperature;BME280_humidity;BME280_pressure;Samples;Min_cycle;Max_cycle;Signal;HPM_P1;HPM_P2
2022/11/08 00:01:33;;;;;;;25.58;17.38;;;;;;;10.70;69.67;95264.84;5049925;28;20430;-69
2022/11/08 00:04:03;;;;;;;25.25;17.63;;;;;;;10.67;69.91;95264.22;5058041;28;20025;-69
2022/11/08 00:14:41;;;;;;;21.95;15.80;;;;;;;10.64;69.95;95264.47;5061336;28;20044;-69
2022/11/08 00:17:07;;;;;;;21.55;16.80;;;;;;;10.57;69.91;95250.31;5037830;28;20029;-69
2022/11/08 00:19:32;;;;;;;24.27;15.55;;;;;;;10.61;70.06;95259.50;5043911;28;20491;-69
2022/11/08 00:21:58;;;;;;;21.77;17.55;;;;;;;10.58;70.04;95259.75;5029614;28;20043;-69
2022/11/08 00:24:23;;;;;;;21.73;17.02;;;;;;;10.60;69.96;95253.50;5064445;28;20102;-69
2022/11/08 00:26:49;;;;;;;24.02;17.05;;;;;;;10.60;70.01;95248.28;5053752;28;20101;-69
2022/11/08 00:29:14;;;;;;;24.17;16.92;;;;;;;10.60;69.96;95247.47;5061255;28;20044;-69
2022/11/08 00:31:40;;;;;;;24.27;17.05;;;;;;;10.58;69.92;95250.16;5071090;28;20067;-69
2022/11/08 00:34:05;;;;;;;25.10;17.70;;;;;;;10.51;69.94;95239.44;5054760;28;20449;-69
2022/11/08 00:36:31;;;;;;;23.95;18.00;;;;;;;10.55;69.95;95250.41;5054016;28;20443;-69
2022/11/08 00:38:56;;;;;;;28.13;18.80;;;;;;;10.52;69.94;95255.84;5038529;28;20021;-69
2022/11/08 00:41:21;;;;;;;27.10;17.98;;;;;;;10.55;70.07;95254.78;5062155;28;20209;-70
2022/11/08 00:43:47;;;;;;;26.20;18.02;;;;;;;10.46;70.06;95245.91;5037163;28;20028;-69
2022/11/08 00:46:12;;;;;;;26.90;18.65;;;;;;;10.44;70.37;95247.78;5053836;28;20037;-69
2022/11/08 00:48:38;;;;;;;26.55;18.70;;;;;;;10.47;69.93;95244.97;5039104;28;20024;-69
2022/11/08 00:51:04;;;;;;;27.23;18.50;;;;;;;10.41;69.97;95248.84;5053714;28;20037;-69
2022/11/08 00:53:30;;;;;;;28.75;19.63;;;;;;;10.40;70.15;95238.59;5037117;28;20388;-69
2022/11/08 00:55:59;;;;;;;26.55;18.70;;;;;;;10.43;70.04;95243.56;5055096;28;20099;-69
2022/11/08 00:58:25;;;;;;;26.17;18.63;;;;;;;10.51;69.65;95243.81;5045474;28;20124;-69
2022/11/08 01:00:51;;;;;;;25.42;17.75;;;;;;;10.40;69.92;95239.41;5056231;28;20021;-69
2022/11/08 01:03:19;;;;;;;26.42;18.55;;;;;;;10.40;69.98;95251.56;5066572;28;20028;-69
2022/11/08 01:05:48;;;;;;;25.02;17.58;;;;;;;10.51;69.54;95251.59;5065287;28;20067;-69
2022/11/08 01:08:14;;;;;;;25.02;17.98;;;;;;;10.38;69.86;95251.69;5064579;28;20461;-69
2022/11/08 01:10:40;;;;;;;25.60;16.60;;;;;;;10.36;70.13;95250.97;5047090;28;20025;-69
2022/11/08 01:13:06;;;;;;;23.80;16.95;;;;;;;10.35;69.90;95254.50;5053442;28;20036;-69
2022/11/08 01:15:35;;;;;;;23.67;16.50;;;;;;;10.41;70.13;95250.63;5054025;28;20024;-69
2022/11/08 01:18:01;;;;;;;24.98;17.95;;;;;;;10.39;70.08;95255.09;5053324;28;20028;-69
2022/11/08 01:20:27;;;;;;;22.95;17.38;;;;;;;10.34;69.97;95247.66;5069285;28;20028;-69
2022/11/08 01:22:52;;;;;;;26.42;17.77;;;;;;;10.33;70.15;95250.38;5070775;28;20035;-69
2022/11/08 01:25:18;;;;;;;30.58;20.30;;;;;;;10.37;70.18;95255.22;5059470;28;20028;-69
2022/11/08 01:27:43;;;;;;;27.23;19.10;;;;;;;10.32;70.34;95244.34;5066044;28;20478;-69
2022/11/08 01:30:09;;;;;;;25.38;18.58;;;;;;;10.39;70.39;95249.91;5065537;28;20537;-69
2022/11/08 01:32:34;;;;;;;25.48;18.63;;;;;;;10.35;70.30;95243.31;5052430;28;20522;-69
2022/11/08 01:35:00;;;;;;;30.02;20.10;;;;;;;10.25;70.79;95243.13;5036650;28;20032;-69
2022/11/08 01:37:25;;;;;;;26.83;19.05;;;;;;;10.33;70.79;95252.97;5053006;28;20029;-69
2022/11/08 01:39:51;;;;;;;25.73;17.85;;;;;;;10.31;70.81;95241.84;5034725;28;20490;-69
2022/11/08 01:42:16;;;;;;;24.33;18.70;;;;;;;10.32;70.75;95246.13;5053032;28;20501;-69
2022/11/08 01:45:01;;;;;;;23.58;17.38;;;;;;;10.22;70.53;95223.44;5066982;28;20474;-69
2022/11/08 01:47:26;;;;;;;21.45;17.67;;;;;;;10.32;70.87;95246.94;5053356;28;20025;-69
2022/11/08 01:49:54;;;;;;;28.30;19.27;;;;;;;10.21;71.03;95234.72;5054198;28;20029;-69
2022/11/08 01:52:22;;;;;;;27.30;19.17;;;;;;;10.26;71.35;95244.78;5049703;28;20465;-69
2022/11/08 01:55:07;;;;;;;27.40;18.67;;;;;;;10.28;71.43;95243.75;5059883;28;20032;-69
2022/11/08 01:57:49;;;;;;;26.58;18.40;;;;;;;10.31;71.34;95244.47;5043625;28;20120;-69
2022/11/08 02:00:15;;;;;;;29.42;20.30;;;;;;;10.24;71.65;95244.88;5053695;28;20040;-69
2022/11/08 02:02:41;;;;;;;29.75;19.20;;;;;;;10.22;71.78;95239.00;5054691;28;20064;-69
2022/11/08 02:05:23;;;;;;;28.73;19.33;;;;;;;10.24;71.61;95241.47;5056497;28;20033;-70
2022/11/08 02:07:56;;;;;;;24.65;17.85;;;;;;;10.24;71.88;95239.69;5047936;28;20047;-69
2022/11/08 02:10:22;;;;;;;27.13;18.40;;;;;;;10.25;71.67;95245.72;5052629;28;20443;-69
2022/11/08 02:12:48;;;;;;;27.52;19.48;;;;;;;10.19;72.10;95248.78;5050243;28;20036;-69
2022/11/08 02:15:14;;;;;;;28.52;19.52;;;;;;;10.13;71.73;95241.44;5052224;28;20027;-69
2022/11/08 02:17:39;;;;;;;29.17;19.58;;;;;;;10.18;71.43;95247.94;5039359;28;20044;-69
2022/11/08 02:20:05;;;;;;;30.20;19.90;;;;;;;10.18;71.40;95239.34;5060670;28;20040;-69
2022/11/08 02:22:38;;;;;;;28.95;20.15;;;;;;;10.15;71.82;95253.38;5052494;28;20415;-69
2022/11/08 02:25:04;;;;;;;26.48;19.00;;;;;;;10.13;72.04;95257.03;5048681;28;20029;-69
2022/11/08 02:27:29;;;;;;;27.83;19.33;;;;;;;10.17;71.76;95263.63;5069184;28;20166;-69
2022/11/08 02:29:55;;;;;;;31.67;19.80;;;;;;;10.09;72.07;95264.22;5069050;28;20499;-69
2022/11/08 02:32:20;;;;;;;25.98;18.92;;;;;;;10.11;72.15;95261.50;5067434;28;20407;-69
2022/11/08 02:34:54;;;;;;;27.90;20.08;;;;;;;10.16;71.98;95257.59;5056664;28;20032;-69
2022/11/08 02:37:20;;;;;;;29.38;19.77;;;;;;;10.19;71.72;95261.75;5069019;28;20033;-69
2022/11/08 02:39:46;;;;;;;26.92;20.13;;;;;;;10.21;71.78;95263.28;5057288;28;20120;-69
2022/11/08 02:42:13;;;;;;;27.75;19.45;;;;;;;10.14;71.94;95254.31;5038309;28;20028;-69
2022/11/08 02:44:38;;;;;;;28.38;19.95;;;;;;;10.18;72.13;95262.72;5069527;28;20024;-69
2022/11/08 02:47:04;;;;;;;29.55;20.25;;;;;;;10.20;72.14;95271.22;5052937;28;20099;-69
2022/11/08 02:49:29;;;;;;;28.70;19.27;;;;;;;10.23;72.17;95270.97;5066446;28;20036;-69
2022/11/08 02:51:55;;;;;;;33.03;22.60;;;;;;;10.19;72.37;95264.34;5070511;28;20036;-70
2022/11/08 02:54:20;;;;;;;34.60;23.70;;;;;;;10.21;72.55;95262.47;5068088;28;20555;-69
2022/11/08 02:56:45;;;;;;;35.80;22.30;;;;;;;10.22;72.67;95261.53;5051557;28;20503;-70
2022/11/08 02:59:11;;;;;;;35.40;22.67;;;;;;;10.24;72.56;95263.06;5051288;28;20047;-69
2022/11/08 03:01:36;;;;;;;30.00;20.45;;;;;;;10.29;72.37;95257.56;5052601;28;20037;-69
2022/11/08 03:04:02;;;;;;;28.20;21.17;;;;;;;10.02;72.17;95208.50;5050970;28;20549;-69
2022/11/08 03:06:27;;;;;;;33.17;22.63;;;;;;;10.32;72.29;95254.75;5053484;28;20037;-69
2022/11/08 03:08:53;;;;;;;31.60;20.88;;;;;;;10.34;72.20;95252.88;5066160;28;20067;-70
2022/11/08 03:11:18;;;;;;;30.45;20.65;;;;;;;10.34;72.39;95262.44;5053720;28;20403;-69
2022/11/08 03:13:43;;;;;;;36.80;23.55;;;;;;;10.31;72.31;95254.84;5058145;28;20033;-69
2022/11/08 03:16:09;;;;;;;33.42;23.02;;;;;;;10.34;72.30;95260.66;5058571;28;20032;-69
2022/11/08 03:18:34;;;;;;;36.88;23.10;;;;;;;10.22;72.65;95253.72;5069324;28;20040;-69
2022/11/08 03:21:03;;;;;;;34.10;23.15;;;;;;;10.21;72.79;95252.09;5063446;28;20040;-69
2022/11/08 03:23:28;;;;;;;36.15;22.65;;;;;;;10.28;72.46;95253.34;5050877;28;20029;-69
2022/11/08 03:25:54;;;;;;;33.65;22.10;;;;;;;10.32;72.35;95254.75;5052318;28;20048;-69
2022/11/08 03:28:19;;;;;;;34.15;22.33;;;;;;;10.30;72.40;95254.03;5053520;28;20033;-69
2022/11/08 03:30:44;;;;;;;31.75;22.27;;;;;;;10.39;72.40;95260.28;5067911;28;20053;-69
2022/11/08 03:33:10;;;;;;;31.15;21.40;;;;;;;10.35;72.21;95257.09;5054867;28;20028;-69
2022/11/08 03:35:35;;;;;;;35.92;22.25;;;;;;;10.42;72.03;95257.47;5066784;28;20029;-69
2022/11/08 03:38:01;;;;;;;30.73;20.90;;;;;;;10.28;72.04;95238.56;5069068;28;20392;-69
2022/11/08 03:40:26;;;;;;;30.02;20.13;;;;;;;10.39;71.78;95261.16;5067808;28;20460;-69
2022/11/08 03:42:52;;;;;;;26.58;18.90;;;;;;;10.43;71.83;95261.72;5067749;28;20093;-69
2022/11/08 03:45:17;;;;;;;31.42;21.00;;;;;;;10.42;71.94;95262.66;5048817;28;20064;-70
2022/11/08 03:47:44;;;;;;;34.05;22.70;;;;;;;10.35;71.97;95264.06;5052698;28;20037;-69
2022/11/08 03:50:10;;;;;;;28.90;20.23;;;;;;;10.47;72.06;95268.34;5043901;28;20050;-70
2022/11/08 03:52:51;;;;;;;31.70;22.15;;;;;;;10.42;71.99;95260.91;5054676;28;20040;-69
2022/11/08 03:55:18;;;;;;;33.28;21.52;;;;;;;10.42;72.05;95255.72;5059074;28;20407;-69
2022/11/08 03:57:44;;;;;;;29.80;20.38;;;;;;;10.51;71.77;95262.81;5034762;28;20037;-69
2022/11/08 04:00:10;;;;;;;30.60;20.67;;;;;;;10.52;71.76;95268.81;5065173;28;20020;-69
2022/11/08 04:02:36;;;;;;;30.23;20.13;;;;;;;10.51;71.97;95262.81;5058508;28;20474;-69
2022/11/08 04:05:01;;;;;;;30.05;21.63;;;;;;;10.44;72.26;95268.56;5056606;28;20067;-69
2022/11/08 04:07:27;;;;;;;29.52;20.60;;;;;;;10.54;72.27;95269.53;5067809;28;20098;-69
2022/11/08 04:09:54;;;;;;;33.60;20.15;;;;;;;10.51;72.35;95269.78;5058085;28;20033;-70
2022/11/08 04:15:16;;;;;;;30.33;20.63;;;;;;;10.50;72.14;95270.69;5054196;28;20048;-69
2022/11/08 04:23:15;;;;;;;31.77;20.40;;;;;;;10.63;71.86;95266.25;5036295;28;20055;-69
2022/11/08 04:25:40;;;;;;;28.90;20.13;;;;;;;10.56;71.91;95262.47;5032466;28;20069;-71
2022/11/08 04:28:06;;;;;;;28.45;20.70;;;;;;;10.62;72.19;95262.00;5059173;28;20100;-69
2022/11/08 04:30:31;;;;;;;31.65;21.42;;;;;;;10.60;72.79;95243.09;5066260;28;20422;-69
2022/11/08 04:33:00;;;;;;;28.70;20.38;;;;;;;10.64;73.04;95254.94;5064862;28;20036;-69
2022/11/08 04:35:27;;;;;;;31.90;20.33;;;;;;;10.65;73.70;95261.75;5064890;28;20028;-69
2022/11/08 04:37:57;;;;;;;28.60;21.58;;;;;;;10.63;74.09;95245.47;5061059;28;20060;-69
2022/11/08 04:40:22;;;;;;;32.85;21.15;;;;;;;10.69;74.22;95254.56;5050970;28;20033;-69
2022/11/08 04:42:48;;;;;;;31.58;21.02;;;;;;;10.56;74.41;95246.88;5053824;28;20468;-69
2022/11/08 04:45:13;;;;;;;32.97;22.08;;;;;;;10.56;74.25;95252.09;5065642;28;20444;-69
2022/11/08 04:47:39;;;;;;;33.80;22.35;;;;;;;10.59;74.91;95264.84;5059832;28;20481;-69
2022/11/08 04:50:04;;;;;;;34.67;21.98;;;;;;;10.43;74.61;95257.34;5064872;28;20040;-71
2022/11/08 04:52:30;;;;;;;35.63;22.08;;;;;;;10.57;75.00;95269.31;5053844;28;20147;-69
2022/11/08 04:54:55;;;;;;;30.65;21.95;;;;;;;10.56;75.15;95266.81;5051519;28;20032;-69
2022/11/08 04:57:20;;;;;;;31.00;21.88;;;;;;;10.56;74.89;95265.06;5070643;28;20028;-69
2022/11/08 04:59:46;;;;;;;30.80;21.13;;;;;;;10.58;74.85;95265.75;5052631;28;20025;-69
2022/11/08 05:02:11;;;;;;;36.97;23.92;;;;;;;10.46;74.81;95264.09;5066944;28;20044;-69
2022/11/08 05:04:37;;;;;;;33.63;21.73;;;;;;;10.52;74.51;95264.44;5054495;28;20021;-69
2022/11/08 05:07:02;;;;;;;31.17;21.88;;;;;;;10.51;74.43;95267.19;5037013;28;20047;-69
2022/11/08 05:09:28;;;;;;;30.55;21.58;;;;;;;10.53;74.61;95270.50;5037821;28;20033;-69
2022/11/08 05:11:53;;;;;;;38.72;21.15;;;;;;;10.53;74.74;95270.50;5068527;28;20452;-69
2022/11/08 05:14:18;;;;;;;33.40;22.05;;;;;;;10.58;74.87;95272.72;5040650;28;20492;-69
2022/11/08 05:16:44;;;;;;;31.90;20.83;;;;;;;10.56;74.58;95282.41;5066339;28;20055;-69
2022/11/08 05:19:09;;;;;;;28.92;20.70;;;;;;;10.50;74.49;95279.34;5066812;28;20033;-69
2022/11/08 05:24:19;;;;;;;31.52;21.42;;;;;;;10.34;74.99;95262.44;5071644;28;20067;-69
2022/11/08 05:26:45;;;;;;;30.08;21.58;;;;;;;10.47;74.69;95274.38;5073503;28;20490;-69
2022/11/08 05:29:11;;;;;;;32.95;21.73;;;;;;;10.45;74.24;95278.03;5068409;28;20029;-69
2022/11/08 05:31:37;;;;;;;29.35;21.15;;;;;;;10.39;74.72;95273.28;5057978;28;20052;-69
2022/11/08 05:34:02;;;;;;;35.10;21.95;;;;;;;10.53;74.05;95278.28;5059102;28;20025;-69
2022/11/08 05:36:28;;;;;;;33.05;20.35;;;;;;;10.50;74.15;95271.56;5052801;28;20047;-69
2022/11/08 05:38:53;;;;;;;33.58;21.55;;;;;;;10.52;73.88;95269.66;5060393;28;20040;-69
2022/11/08 05:41:20;;;;;;;31.00;22.20;;;;;;;10.52;73.65;95277.44;5065214;28;20494;-69
2022/11/08 05:43:46;;;;;;;32.00;20.95;;;;;;;10.56;73.88;95287.59;5041338;28;20457;-69
2022/11/08 05:46:12;;;;;;;30.95;20.70;;;;;;;10.59;73.64;95290.00;5061585;28;20039;-69
2022/11/08 05:48:37;;;;;;;30.38;20.60;;;;;;;10.47;73.95;95258.81;5047477;28;20036;-69
2022/11/08 05:51:03;;;;;;;34.72;20.48;;;;;;;10.59;73.57;95283.03;5063628;28;20063;-69
2022/11/08 05:53:28;;;;;;;31.05;20.42;;;;;;;10.59;73.20;95277.00;5071590;28;20056;-69
2022/11/08 05:55:58;;;;;;;29.08;19.98;;;;;;;10.60;73.18;95274.28;5037102;28;20502;-69
2022/11/08 05:58:24;;;;;;;31.60;20.48;;;;;;;10.64;73.35;95274.84;5063608;28;20493;-69
2022/11/08 06:00:50;;;;;;;28.95;20.33;;;;;;;10.66;73.53;95275.56;5060409;28;20033;-69
2022/11/08 06:03:15;;;;;;;34.05;20.73;;;;;;;10.72;73.41;95278.53;5061553;28;20020;-69
2022/11/08 06:05:40;;;;;;;31.77;20.50;;;;;;;10.74;73.37;95287.03;5063550;28;20041;-69
2022/11/08 06:08:06;;;;;;;30.80;19.48;;;;;;;10.76;73.56;95281.75;5074850;28;20032;-69
2022/11/08 06:10:31;;;;;;;31.83;19.92;;;;;;;10.82;73.79;95290.84;5049000;28;20025;-69
2022/11/08 06:12:59;;;;;;;27.80;19.40;;;;;;;10.81;73.18;95287.41;5049558;28;20032;-69
2022/11/08 06:15:24;;;;;;;30.17;21.08;;;;;;;10.82;73.07;95288.25;5055234;28;20025;-68
2022/11/08 06:17:50;;;;;;;26.75;19.00;;;;;;;10.86;73.17;95303.47;5051562;28;20025;-69
2022/11/08 06:20:15;;;;;;;28.38;20.20;;;;;;;10.87;73.26;95305.13;5051784;28;20314;-69
2022/11/08 06:22:42;;;;;;;31.63;22.30;;;;;;;10.93;73.48;95315.06;5067992;28;20048;-69
2022/11/08 06:25:08;;;;;;;34.33;21.73;;;;;;;11.05;72.56;95312.47;5052374;28;20059;-69
2022/11/08 06:27:35;;;;;;;34.85;23.63;;;;;;;11.06;72.60;95314.13;5059377;28;20549;-69
2022/11/08 06:30:00;;;;;;;31.83;23.02;;;;;;;11.08;72.67;95317.44;5059547;28;20465;-69
2022/11/08 06:32:26;;;;;;;32.00;20.80;;;;;;;11.11;72.44;95320.63;5071809;28;20052;-69
2022/11/08 06:34:51;;;;;;;28.58;20.83;;;;;;;11.11;71.78;95314.59;5067445;28;20494;-69
2022/11/08 06:37:17;;;;;;;25.48;19.27;;;;;;;11.09;72.21;95335.53;5070277;28;20494;-69
2022/11/08 06:39:43;;;;;;;28.98;20.33;;;;;;;11.25;71.60;95337.75;5068674;28;20407;-69
2022/11/08 06:42:08;;;;;;;30.20;23.02;;;;;;;11.21;71.93;95338.94;5070349;28;20044;-69
2022/11/08 06:44:34;;;;;;;29.92;21.30;;;;;;;11.10;71.77;95344.97;5069686;28;20024;-69
2022/11/08 06:46:59;;;;;;;29.92;21.25;;;;;;;11.08;71.89;95346.03;5070045;28;20032;-69
2022/11/08 06:49:25;;;;;;;33.42;21.77;;;;;;;11.11;71.95;95349.22;5068887;28;20031;-69
2022/11/08 06:51:51;;;;;;;33.83;22.45;;;;;;;11.06;72.09;95345.31;5071858;28;20097;-69
2022/11/08 06:54:16;;;;;;;30.00;21.73;;;;;;;11.08;72.32;95348.63;5053716;28;20442;-69
2022/11/08 06:56:42;;;;;;;33.88;22.08;;;;;;;11.15;72.46;95355.84;5068241;28;20123;-69
2022/11/08 06:59:08;;;;;;;32.80;22.83;;;;;;;11.14;72.29;95349.00;5051310;28;20028;-69
2022/11/08 07:01:33;;;;;;;33.20;21.75;;;;;;;11.19;73.00;95354.66;5053593;28;20409;-69
2022/11/08 07:03:59;;;;;;;33.28;23.58;;;;;;;11.24;72.99;95351.72;5070034;28;20375;-69
2022/11/08 07:06:24;;;;;;;33.60;23.75;;;;;;;11.28;72.86;95360.09;5070139;28;20032;-69
2022/11/08 07:08:50;;;;;;;31.10;22.95;;;;;;;11.38;72.32;95358.47;5066676;28;20033;-69
2022/11/08 07:11:15;;;;;;;36.00;23.63;;;;;;;11.41;72.34;95353.00;5057027;28;20037;-69
2022/11/08 07:13:41;;;;;;;39.35;24.80;;;;;;;11.36;72.73;95352.53;5063679;28;20102;-69
2022/11/08 07:16:06;;;;;;;33.92;24.08;;;;;;;11.41;72.78;95350.41;5070107;28;20093;-69
2022/11/08 07:18:32;;;;;;;40.85;25.73;;;;;;;11.36;72.88;95344.72;5067790;28;20492;-69
2022/11/08 07:20:59;;;;;;;40.92;25.33;;;;;;;11.44;72.70;95344.97;5064404;28;20509;-69
2022/11/08 07:23:24;;;;;;;35.33;24.92;;;;;;;11.51;72.55;95348.75;5049849;28;20083;-69
2022/11/08 07:25:50;;;;;;;41.95;26.35;;;;;;;11.52;72.83;95352.19;5050012;28;20461;-69
2022/11/08 07:28:16;;;;;;;44.25;25.70;;;;;;;11.55;72.95;95359.75;5058515;28;20445;-69
2022/11/08 07:30:42;;;;;;;40.25;25.33;;;;;;;11.58;72.41;95355.13;5069541;28;20486;-69
2022/11/08 07:33:07;;;;;;;37.38;24.25;;;;;;;11.66;72.28;95351.09;5069932;28;20056;-69
2022/11/08 07:35:33;;;;;;;36.58;24.45;;;;;;;11.72;72.23;95350.63;5070915;28;20525;-69
2022/11/08 07:37:58;;;;;;;40.20;25.70;;;;;;;11.71;72.21;95349.78;5069692;28;20069;-69
2022/11/08 07:40:24;;;;;;;37.17;25.50;;;;;;;11.93;71.52;95356.75;5067752;28;20453;-69
2022/11/08 07:42:49;;;;;;;37.65;25.17;;;;;;;11.87;71.79;95359.88;5052771;28;20033;-69
2022/11/08 07:45:15;;;;;;;39.78;24.83;;;;;;;11.86;71.92;95352.97;5049712;28;20025;-69
2022/11/08 07:47:40;;;;;;;40.50;26.30;;;;;;;11.77;71.96;95343.28;5067759;28;20036;-69
2022/11/08 07:50:06;;;;;;;36.15;24.27;;;;;;;11.88;71.97;95360.69;5066418;28;20490;-69
2022/11/08 07:52:31;;;;;;;41.25;25.52;;;;;;;11.93;71.96;95356.75;5061360;28;20434;-68
2022/11/08 07:54:57;;;;;;;36.38;23.73;;;;;;;11.94;71.99;95355.81;5063793;28;20036;-69
2022/11/08 07:57:22;;;;;;;36.05;25.13;;;;;;;11.99;71.79;95358.06;5032955;28;20055;-69
2022/11/08 07:59:48;;;;;;;38.42;24.80;;;;;;;11.87;72.17;95341.63;5062172;28;20029;-69
2022/11/08 08:02:13;;;;;;;35.63;23.27;;;;;;;12.00;71.86;95350.09;5069427;28;20048;-69
2022/11/08 08:04:39;;;;;;;34.50;22.52;;;;;;;12.02;71.70;95337.78;5062667;28;20021;-69
2022/11/08 08:07:04;;;;;;;32.33;22.77;;;;;;;12.12;71.82;95352.66;5061721;28;20044;-69
2022/11/08 08:09:33;;;;;;;32.45;21.80;;;;;;;12.15;71.62;95348.06;5068937;28;20116;-69
2022/11/08 08:11:59;;;;;;;35.63;24.02;;;;;;;12.13;71.42;95349.13;5051853;28;20047;-69
2022/11/08 08:14:24;;;;;;;32.38;21.75;;;;;;;12.34;70.58;95356.97;5068886;28;20028;-69
2022/11/08 08:16:50;;;;;;;32.90;21.92;;;;;;;12.34;70.59;95355.22;5070494;28;20033;-69
2022/11/08 08:19:15;;;;;;;34.13;23.42;;;;;;;12.39;70.79;95363.47;5069272;28;20086;-69
2022/11/08 08:21:41;;;;;;;34.70;23.92;;;;;;;12.39;70.69;95353.03;5069335;28;20029;-69
2022/11/08 08:24:06;;;;;;;32.33;22.58;;;;;;;12.46;70.80;95356.81;5073307;28;20024;-69
2022/11/08 08:26:32;;;;;;;31.90;22.80;;;;;;;12.49;70.96;95356.56;5074596;28;20070;-69
2022/11/08 08:28:57;;;;;;;37.00;22.90;;;;;;;12.47;70.50;95357.63;5074595;28;20493;-69
2022/11/08 08:31:23;;;;;;;35.45;23.05;;;;;;;12.46;70.39;95356.81;5074213;28;20530;-69
2022/11/08 08:33:48;;;;;;;33.45;21.90;;;;;;;12.50;70.41;95355.59;5074429;28;20475;-69
2022/11/08 08:36:13;;;;;;;31.30;21.80;;;;;;;12.55;70.66;95360.44;5074495;28;20414;-69
2022/11/08 08:38:39;;;;;;;32.80;23.35;;;;;;;12.40;70.46;95330.44;5074072;28;20029;-69
2022/11/08 08:41:04;;;;;;;32.92;22.02;;;;;;;12.61;70.14;95348.69;5072998;28;20041;-69
2022/11/08 08:43:31;;;;;;;32.42;22.75;;;;;;;12.66;69.75;95351.75;5074013;28;20047;-69
2022/11/08 08:46:03;;;;;;;34.70;22.73;;;;;;;12.70;69.76;95360.97;5056324;28;20032;-69
2022/11/08 08:48:29;;;;;;;30.23;22.65;;;;;;;12.48;69.40;95313.22;5072748;28;20104;-69
2022/11/08 08:50:54;;;;;;;36.65;23.38;;;;;;;12.80;68.97;95361.03;5072953;28;20486;-69
2022/11/08 08:53:20;;;;;;;37.25;23.77;;;;;;;12.78;69.38;95366.38;5072652;28;20028;-69
2022/11/08 08:55:46;;;;;;;36.78;24.58;;;;;;;12.78;69.36;95362.94;5072658;28;20421;-69
2022/11/08 08:58:12;;;;;;;35.15;23.75;;;;;;;12.82;69.26;95370.38;5072520;28;20413;-69
2022/11/08 09:00:37;;;;;;;33.40;22.63;;;;;;;12.83;69.48;95369.41;5055904;28;20099;-69
2022/11/08 09:03:03;;;;;;;36.83;24.40;;;;;;;12.87;69.41;95365.63;5072513;28;20028;-69
2022/11/08 09:05:30;;;;;;;35.83;23.55;;;;;;;12.94;69.18;95371.97;5055906;28;20549;-69
2022/11/08 09:07:55;;;;;;;33.22;23.15;;;;;;;12.92;69.08;95373.88;5073636;28;20016;-69
2022/11/08 09:10:21;;;;;;;35.13;23.60;;;;;;;12.97;68.31;95370.88;5073734;28;20608;-70
2022/11/08 09:12:46;;;;;;;32.72;23.58;;;;;;;12.83;68.26;95345.13;5055619;28;20085;-69
2022/11/08 09:15:12;;;;;;;36.15;23.45;;;;;;;13.01;67.92;95368.84;5072339;28;20012;-69
2022/11/08 09:17:37;;;;;;;37.58;23.73;;;;;;;13.04;67.96;95372.03;5073850;28;20036;-69
2022/11/08 09:20:03;;;;;;;47.22;29.95;;;;;;;13.04;67.70;95365.97;5072179;28;20028;-69
2022/11/08 09:22:30;;;;;;;37.00;25.00;;;;;;;13.03;67.92;95365.16;5089185;28;20478;-69
2022/11/08 09:24:55;;;;;;;36.28;23.70;;;;;;;13.06;67.73;95369.28;5071958;28;20077;-69
2022/11/08 09:27:21;;;;;;;33.03;22.48;;;;;;;13.01;67.92;95355.78;5072265;28;20028;-69
2022/11/08 09:29:46;;;;;;;38.17;24.05;;;;;;;13.11;67.72;95367.13;5073149;28;20470;-69
2022/11/08 09:32:11;;;;;;;35.70;23.38;;;;;;;13.11;67.51;95364.50;5072025;28;20059;-69
2022/11/08 09:34:37;;;;;;;30.75;22.27;;;;;;;13.20;67.24;95366.34;5071684;28;20029;-69
2022/11/08 09:37:02;;;;;;;35.72;23.42;;;;;;;13.22;66.88;95361.81;5073484;28;20040;-69
2022/11/08 09:39:28;;;;;;;31.75;21.63;;;;;;;13.32;67.13;95364.53;5073203;28;20032;-69
2022/11/08 09:42:08;;;;;;;30.92;21.90;;;;;;;13.33;66.85;95355.72;5071860;28;20575;-69
2022/11/08 09:45:07;;;;;;;28.50;20.02;;;;;;;13.35;66.98;95354.66;5072920;28;20471;-69
2022/11/08 09:47:43;;;;;;;26.60;19.88;;;;;;;13.34;66.48;95339.94;5073374;28;20052;-69
2022/11/08 09:50:27;;;;;;;29.75;20.85;;;;;;;13.47;66.71;95347.53;5071766;28;20031;-69
2022/11/08 09:53:14;;;;;;;28.52;20.77;;;;;;;13.40;67.12;95342.03;5071520;28;20066;-70
2022/11/08 09:55:46;;;;;;;30.30;20.25;;;;;;;13.51;66.86;95341.13;5073344;28;20028;-69
2022/11/08 09:58:34;;;;;;;29.40;20.15;;;;;;;13.60;66.47;95342.09;5055862;28;20040;-69
2022/11/08 10:01:00;;;;;;;27.92;19.50;;;;;;;13.63;66.32;95345.28;5073024;28;20037;-69
2022/11/08 10:03:26;;;;;;;26.05;19.08;;;;;;;13.67;66.15;95342.38;5071390;28;20016;-69
2022/11/08 10:06:09;;;;;;;28.15;19.88;;;;;;;13.80;66.08;95332.53;5071335;28;20064;-69
2022/11/08 10:09:16;;;;;;;38.50;24.98;;;;;;;13.88;65.62;95337.09;5072440;28;20027;-69
2022/11/08 10:11:51;;;;;;;30.75;21.75;;;;;;;13.96;65.22;95338.06;5069424;28;20056;-69
2022/11/08 10:14:35;;;;;;;32.45;20.45;;;;;;;14.03;65.17;95327.91;5055447;28;20028;-69
2022/11/08 10:17:28;;;;;;;29.23;19.00;;;;;;;14.10;64.61;95323.78;5072717;28;20040;-70
2022/11/08 10:20:27;;;;;;;28.10;20.58;;;;;;;14.06;64.54;95318.00;5071017;28;20032;-69
2022/11/08 10:23:20;;;;;;;29.23;19.52;;;;;;;14.14;64.23;95325.16;5056419;28;20044;-69
2022/11/08 10:25:58;;;;;;;27.73;19.30;;;;;;;14.15;64.16;95325.97;5072207;28;20395;-69
2022/11/08 10:28:27;;;;;;;27.40;19.08;;;;;;;14.18;63.93;95316.09;5054111;28;20067;-69
2022/11/08 10:30:53;;;;;;;25.90;19.17;;;;;;;14.25;64.05;95311.13;5054226;28;20060;-69
2022/11/08 10:33:23;;;;;;;31.30;19.50;;;;;;;14.28;64.02;95310.88;5054289;28;20036;-69
2022/11/08 10:35:56;;;;;;;24.60;17.92;;;;;;;14.19;63.39;95299.44;5070771;28;20036;-69
2022/11/08 10:38:24;;;;;;;22.88;17.08;;;;;;;14.36;62.98;95312.78;5072135;28;20024;-69
2022/11/08 10:40:57;;;;;;;26.75;17.80;;;;;;;14.42;62.79;95301.78;5070653;28;20035;-69
2022/11/08 10:43:41;;;;;;;23.40;16.35;;;;;;;14.49;62.29;95297.66;5070518;28;20483;-69
2022/11/08 10:46:33;;;;;;;21.30;16.48;;;;;;;14.49;61.89;95298.47;5037206;28;20406;-69
2022/11/08 10:49:21;;;;;;;24.25;17.58;;;;;;;14.52;62.07;95300.03;5070317;28;20422;-69
2022/11/08 10:51:48;;;;;;;28.55;17.10;;;;;;;14.50;61.83;95294.06;5070180;28;20159;-69
2022/11/08 10:54:48;;;;;;;23.15;16.10;;;;;;;14.54;61.26;95292.84;5070667;28;20044;-69
2022/11/08 10:57:26;;;;;;;19.88;15.40;;;;;;;14.58;60.52;95291.63;5070589;28;20039;-69
2022/11/08 10:59:52;;;;;;;23.27;16.40;;;;;;;14.63;60.57;95281.56;5071550;28;20028;-69
2022/11/08 11:02:19;;;;;;;24.80;16.38;;;;;;;14.62;60.03;95287.75;5053626;28;20126;-69
2022/11/08 11:04:44;;;;;;;26.40;17.45;;;;;;;14.60;60.50;95284.47;5053518;28;20401;-69
2022/11/08 11:07:33;;;;;;;25.02;17.50;;;;;;;14.57;60.65;95283.91;5053650;28;20123;-69
2022/11/08 11:10:23;;;;;;;24.35;17.85;;;;;;;14.49;60.87;95277.56;5070172;28;20048;-69
2022/11/08 11:13:01;;;;;;;25.48;17.13;;;;;;;14.53;60.76;95278.13;5070045;28;20425;-69
2022/11/08 11:15:35;;;;;;;21.58;16.83;;;;;;;14.53;60.74;95270.28;5070098;28;20028;-69
2022/11/08 11:18:01;;;;;;;23.92;18.27;;;;;;;14.51;61.05;95270.41;5054363;28;20034;-69
2022/11/08 11:20:27;;;;;;;24.67;18.60;;;;;;;14.45;61.07;95270.13;5053347;28;20033;-69
2022/11/08 11:22:52;;;;;;;22.80;17.65;;;;;;;14.43;61.21;95266.81;5069901;28;20086;-69
2022/11/08 11:25:19;;;;;;;23.02;16.45;;;;;;;14.48;60.69;95270.66;5069892;28;20028;-69
2022/11/08 11:27:54;;;;;;;22.52;17.10;;;;;;;14.39;60.88;95261.06;5069727;28;20051;-69
2022/11/08 11:30:27;;;;;;;20.70;15.77;;;;;;;14.21;60.76;95250.50;5053726;28;20029;-69
2022/11/08 11:33:26;;;;;;;21.98;16.95;;;;;;;14.35;60.58;95264.94;5069547;28;20438;-70
2022/11/08 11:36:12;;;;;;;18.88;15.52;;;;;;;14.35;59.94;95266.69;5061554;28;20045;-69
2022/11/08 11:38:46;;;;;;;24.48;15.93;;;;;;;14.31;60.44;95260.94;5069572;28;20024;-70
2022/11/08 11:41:15;;;;;;;23.13;16.55;;;;;;;14.28;59.63;95261.22;5071057;28;20036;-69